Time;durP1;ratioP1;P1;durP2;ratioP2;P2;SDS_P1;SDS_P2;PMS_P1;PMS_P2;Temp;Humidity;BMP_temperature;BMP_pressure;BME280_temperature;BME280_humidity;BME280_pressure;Samples;Min_cycle;Max_cycle;Signal;HPM_P1;HPM_P2
2023/12/26 00:01:50;;;;;;;6.70;2.17;;;;;;;9.61;98.67;99734.25;6311383;28;20076;-76
2023/12/26 00:04:50;;;;;;;4.60;1.70;;;;;;;9.62;99.46;99741.16;6316960;28;20517;-74
2023/12/26 00:07:51;;;;;;;6.68;2.40;;;;;;;9.74;99.01;99747.38;6317685;28;20044;-70
2023/12/26 00:10:52;;;;;;;8.55;3.08;;;;;;;9.64;99.08;99741.91;6310014;28;20052;-71
2023/12/26 00:13:53;;;;;;;5.82;2.10;;;;;;;9.61;99.58;99743.84;6327547;28;20052;-71
2023/12/26 00:16:54;;;;;;;2.80;1.73;;;;;;;9.51;100.00;99753.97;6313371;28;20519;-71
2023/12/26 00:19:55;;;;;;;3.10;1.90;;;;;;;9.54;100.00;99747.78;6303281;28;20137;-76
2023/12/26 00:22:56;;;;;;;5.28;1.88;;;;;;;9.54;100.00;99742.56;6306136;28;20052;-71
2023/12/26 00:25:58;;;;;;;4.50;2.00;;;;;;;9.45;100.00;99746.53;6318097;28;20055;-76
2023/12/26 00:29:01;;;;;;;3.65;1.90;;;;;;;9.37;100.00;99752.25;6303433;28;20056;-71
2023/12/26 00:32:03;;;;;;;6.93;1.98;;;;;;;9.44;100.00;99753.53;6299636;28;20091;-76
2023/12/26 00:35:04;;;;;;;5.43;2.10;;;;;;;9.42;100.00;99754.56;6297179;28;20127;-76
2023/12/26 00:38:05;;;;;;;4.43;1.95;;;;;;;9.38;100.00;99763.50;6310183;28;20099;-71
2023/12/26 00:41:08;;;;;;;4.97;2.22;;;;;;;9.36;100.00;99760.97;6321506;28;20484;-71
2023/12/26 00:44:09;;;;;;;7.82;1.90;;;;;;;9.40;100.00;99764.22;6297226;28;20127;-76
2023/12/26 00:47:10;;;;;;;4.32;2.10;;;;;;;9.42;100.00;99759.78;6298123;28;20559;-71
2023/12/26 00:50:12;;;;;;;3.58;1.73;;;;;;;9.46;100.00;99753.44;6296821;28;20416;-76
2023/12/26 00:53:15;;;;;;;3.25;2.17;;;;;;;9.33;100.00;99752.50;6298885;28;20178;-71
2023/12/26 00:56:16;;;;;;;2.90;1.70;;;;;;;9.29;100.00;99759.69;6317407;28;20520;-71
2023/12/26 00:59:19;;;;;;;2.63;1.83;;;;;;;9.30;100.00;99765.72;6297726;28;20064;-71
2023/12/26 01:02:22;;;;;;;4.60;2.05;;;;;;;9.11;100.00;99771.19;6302461;28;20052;-71
2023/12/26 01:05:23;;;;;;;3.10;1.73;;;;;;;9.13;100.00;99764.13;6297046;28;20048;-76
2023/12/26 01:08:27;;;;;;;3.17;1.80;;;;;;;9.06;100.00;99772.31;6313391;28;20057;-71
2023/12/26 01:11:28;;;;;;;4.43;2.20;;;;;;;9.02;100.00;99763.00;6297926;28;20102;-71
2023/12/26 01:14:29;;;;;;;3.45;1.70;;;;;;;9.08;100.00;99760.03;6303850;28;20052;-76
2023/12/26 01:17:30;;;;;;;7.53;2.08;;;;;;;9.06;100.00;99761.06;6300403;28;20059;-76
2023/12/26 01:20:31;;;;;;;8.23;3.38;;;;;;;9.01;100.00;99756.09;6294736;28;20041;-71
2023/12/26 01:23:34;;;;;;;2.63;2.05;;;;;;;8.99;100.00;99754.53;6306463;28;20044;-77
2023/12/26 01:26:35;;;;;;;8.75;2.60;;;;;;;9.00;100.00;99762.25;6302307;28;20558;-71
2023/12/26 01:29:36;;;;;;;2.85;2.15;;;;;;;9.02;100.00;99765.59;6328173;28;20556;-71
2023/12/26 01:32:37;;;;;;;4.30;1.63;;;;;;;8.99;100.00;99772.75;6299049;28;20654;-77
2023/12/26 01:35:38;;;;;;;6.40;2.25;;;;;;;9.00;100.00;99769.25;6306305;28;20050;-76
2023/12/26 01:38:39;;;;;;;3.28;1.88;;;;;;;8.97;100.00;99772.00;6294932;28;20046;-76
2023/12/26 01:41:40;;;;;;;8.38;2.38;;;;;;;8.92;100.00;99763.66;6328505;27;20075;-71
2023/12/26 01:44:43;;;;;;;5.35;2.13;;;;;;;8.86;100.00;99773.47;6299250;28;20048;-71
2023/12/26 01:47:53;;;;;;;4.53;2.08;;;;;;;8.84;100.00;99774.50;6297457;28;20048;-76
2023/12/26 01:50:54;;;;;;;5.95;2.30;;;;;;;8.81;100.00;99772.91;6296722;28;20519;-72
2023/12/26 01:53:56;;;;;;;5.60;1.98;;;;;;;8.71;100.00;99763.97;6296201;28;20472;-77
2023/12/26 01:56:58;;;;;;;5.18;2.40;;;;;;;8.61;100.00;99765.41;6328784;27;20055;-77
2023/12/26 02:00:01;;;;;;;5.28;1.92;;;;;;;8.52;100.00;99782.38;6297238;28;20056;-77
2023/12/26 02:03:03;;;;;;;4.55;2.05;;;;;;;8.49;100.00;99776.53;6300267;28;20514;-77
2023/12/26 02:06:05;;;;;;;5.35;2.47;;;;;;;8.36;100.00;99761.59;6296131;28;20050;-77
2023/12/26 02:09:10;;;;;;;5.28;2.75;;;;;;;8.30;100.00;99763.66;6316227;28;20684;-76
2023/12/26 02:12:11;;;;;;;6.38;3.22;;;;;;;8.22;100.00;99759.75;6297659;28;20048;-76
2023/12/26 02:15:14;;;;;;;9.00;3.10;;;;;;;8.15;100.00;99767.97;6307996;28;20051;-76
2023/12/26 02:18:15;;;;;;;6.38;2.95;;;;;;;8.12;100.00;99768.97;6305703;28;20063;-76
2023/12/26 02:21:16;;;;;;;5.38;2.72;;;;;;;8.08;100.00;99768.31;6319584;28;20506;-71
2023/12/26 02:24:17;;;;;;;4.40;2.50;;;;;;;8.04;100.00;99760.78;6308546;28;20049;-71
2023/12/26 02:27:22;;;;;;;4.22;2.22;;;;;;;8.09;100.00;99761.34;6295776;28;20488;-71
2023/12/26 02:30:24;;;;;;;8.98;2.63;;;;;;;8.13;100.00;99756.81;6294533;28;20048;-72
2023/12/26 02:33:25;;;;;;;5.15;2.30;;;;;;;8.16;100.00;99752.28;6307367;28;20040;-71
2023/12/26 02:36:27;;;;;;;5.28;2.60;;;;;;;8.24;100.00;99755.31;6316253;28;20055;-77
2023/12/26 02:39:28;;;;;;;5.00;2.75;;;;;;;8.33;100.00;99747.91;6293076;28;20055;-71
2023/12/26 02:42:29;;;;;;;7.88;2.30;;;;;;;8.38;100.00;99756.28;6330135;27;20393;-76
2023/12/26 02:45:30;;;;;;;5.80;2.25;;;;;;;8.40;100.00;99746.63;6311388;28;20052;-76
2023/12/26 02:48:31;;;;;;;4.97;2.08;;;;;;;8.45;100.00;99742.06;6298380;28;20416;-76
2023/12/26 02:51:32;;;;;;;7.00;2.88;;;;;;;8.44;100.00;99748.16;6315996;28;20070;-71
2023/12/26 02:54:35;;;;;;;9.93;3.97;;;;;;;8.36;100.00;99758.97;6293367;28;20477;-77
2023/12/26 02:57:36;;;;;;;10.30;4.57;;;;;;;8.39;100.00;99763.16;6326102;28;20052;-71
2023/12/26 03:00:37;;;;;;;10.35;3.45;;;;;;;8.36;100.00;99769.38;6312639;28;20048;-76
2023/12/26 03:03:38;;;;;;;12.13;3.17;;;;;;;8.26;100.00;99757.81;6292484;28;20478;-76
2023/12/26 03:06:39;;;;;;;8.20;3.22;;;;;;;8.43;100.00;99768.13;6299951;28;20053;-71
2023/12/26 03:09:42;;;;;;;5.78;2.72;;;;;;;8.40;100.00;99760.50;6294651;28;20049;-71
2023/12/26 03:12:43;;;;;;;6.13;2.83;;;;;;;8.50;100.00;99755.59;6310385;28;20123;-77
2023/12/26 03:15:44;;;;;;;6.57;2.95;;;;;;;8.49;100.00;99747.91;6302342;28;20041;-76
2023/12/26 03:18:45;;;;;;;8.95;2.95;;;;;;;8.48;100.00;99767.88;6327975;27;20389;-71
2023/12/26 03:21:48;;;;;;;11.70;3.60;;;;;;;8.55;100.00;99774.41;6300147;28;20052;-71
2023/12/26 03:24:49;;;;;;;13.07;4.72;;;;;;;8.54;100.00;99772.72;6305838;28;20040;-76
2023/12/26 03:27:50;;;;;;;12.95;5.00;;;;;;;8.60;100.00;99781.94;6298181;28;20411;-71
2023/12/26 03:30:51;;;;;;;8.45;3.35;;;;;;;8.62;100.00;99767.09;6300990;28;20479;-76
2023/12/26 03:33:55;;;;;;;6.32;2.88;;;;;;;8.46;100.00;99773.16;6301351;28;20135;-76
2023/12/26 03:36:55;;;;;;;7.20;3.83;;;;;;;8.28;100.00;99790.59;6302184;28;20411;-70
2023/12/26 03:39:57;;;;;;;13.15;5.45;;;;;;;8.27;100.00;99786.31;6298374;28;20062;-71
2023/12/26 03:42:58;;;;;;;13.07;6.10;;;;;;;8.21;100.00;99780.63;6301217;28;20048;-71
2023/12/26 03:45:59;;;;;;;15.05;5.82;;;;;;;8.27;100.00;99788.09;6303888;28;21279;-71
2023/12/26 03:49:00;;;;;;;13.40;4.80;;;;;;;8.22;100.00;99775.34;6311822;28;20189;-76
2023/12/26 03:52:01;;;;;;;10.23;4.57;;;;;;;8.31;100.00;99779.19;6298767;28;20048;-77
2023/12/26 03:55:02;;;;;;;7.88;4.03;;;;;;;8.37;100.00;99780.63;6304537;28;20052;-71
2023/12/26 03:58:03;;;;;;;19.00;8.57;;;;;;;8.28;100.00;99774.19;6306559;28;20052;-71
2023/12/26 04:01:04;;;;;;;13.27;5.97;;;;;;;8.34;100.00;99779.03;6318968;28;20277;-71
2023/12/26 04:04:05;;;;;;;11.52;4.32;;;;;;;8.27;100.00;99783.72;6318455;28;20079;-71
2023/12/26 04:07:06;;;;;;;12.68;3.95;;;;;;;8.28;100.00;99788.00;6303721;28;20059;-71
2023/12/26 04:10:07;;;;;;;10.48;4.07;;;;;;;8.13;100.00;99783.63;6308153;28;20093;-76
2023/12/26 04:13:08;;;;;;;10.52;4.20;;;;;;;8.01;100.00;99794.69;6307728;28;20049;-76
2023/12/26 04:16:09;;;;;;;9.20;4.00;;;;;;;8.01;100.00;99792.09;6300183;28;20409;-71
2023/12/26 04:19:10;;;;;;;14.00;3.83;;;;;;;8.02;100.00;99801.59;6313337;28;20044;-77
2023/12/26 04:22:11;;;;;;;11.80;4.50;;;;;;;8.00;100.00;99801.66;6293723;28;20106;-75
2023/12/26 04:25:12;;;;;;;9.60;4.45;;;;;;;8.04;100.00;99797.16;6295445;28;20044;-71
2023/12/26 04:28:13;;;;;;;9.82;3.95;;;;;;;8.01;100.00;99792.97;6304574;28;20480;-76
2023/12/26 04:31:16;;;;;;;8.25;4.05;;;;;;;8.14;100.00;99808.72;6306120;28;20047;-76
2023/12/26 04:34:17;;;;;;;11.20;4.65;;;;;;;8.14;100.00;99800.09;6313494;28;20427;-71
2023/12/26 04:37:18;;;;;;;11.10;4.22;;;;;;;7.96;100.00;99805.34;6301429;28;20051;-71
2023/12/26 04:40:19;;;;;;;8.52;3.72;;;;;;;8.06;100.00;99808.31;6292324;28;20080;-71
2023/12/26 04:43:20;;;;;;;11.20;4.55;;;;;;;7.86;100.00;99804.16;6306083;28;20123;-76
2023/12/26 04:46:23;;;;;;;9.65;4.07;;;;;;;7.96;100.00;99807.94;6312130;28;20132;-71
2023/12/26 04:49:27;;;;;;;11.48;4.65;;;;;;;8.10;100.00;99815.00;6292347;28;20079;-76
2023/12/26 04:52:31;;;;;;;5.88;3.30;;;;;;;8.07;100.00;99805.63;6295930;28;20129;-77
2023/12/26 04:55:32;;;;;;;14.80;4.55;;;;;;;8.05;100.00;99828.25;6307716;28;20056;-76
2023/12/26 04:58:33;;;;;;;9.52;3.88;;;;;;;8.04;100.00;99823.97;6306009;28;20155;-70
2023/12/26 05:01:40;;;;;;;9.15;3.88;;;;;;;8.03;100.00;99830.09;6316111;28;20037;-71
2023/12/26 05:04:41;;;;;;;14.18;4.47;;;;;;;8.05;100.00;99842.97;6305431;28;20044;-76
2023/12/26 05:07:42;;;;;;;16.10;4.25;;;;;;;7.93;100.00;99834.13;6310724;28;20419;-71
2023/12/26 05:10:43;;;;;;;16.02;4.57;;;;;;;8.02;100.00;99833.59;6307248;28;20489;-76
2023/12/26 05:13:44;;;;;;;9.35;3.50;;;;;;;7.97;100.00;99830.44;6319639;28;20048;-76
2023/12/26 05:16:48;;;;;;;8.90;3.45;;;;;;;7.86;100.00;99822.34;6315266;28;20047;-76
2023/12/26 05:19:49;;;;;;;14.98;5.53;;;;;;;8.00;100.00;99832.84;6315774;28;20048;-70
2023/12/26 05:22:50;;;;;;;14.55;4.60;;;;;;;7.97;100.00;99832.16;6321474;28;20078;-71
2023/12/26 05:25:51;;;;;;;13.35;4.32;;;;;;;7.92;100.00;99829.81;6309968;28;20044;-76
2023/12/26 05:28:52;;;;;;;8.57;3.45;;;;;;;7.96;100.00;99822.72;6298545;28;20052;-71
2023/12/26 05:31:53;;;;;;;8.20;3.63;;;;;;;7.90;100.00;99826.47;6303721;28;20048;-71
2023/12/26 05:34:55;;;;;;;12.98;4.28;;;;;;;7.89;100.00;99827.41;6304979;28;20140;-71
2023/12/26 05:37:56;;;;;;;7.80;3.97;;;;;;;7.94;100.00;99833.16;6311718;28;20040;-71
2023/12/26 05:40:57;;;;;;;13.20;4.25;;;;;;;8.02;100.00;99841.41;6305796;28;20118;-76
2023/12/26 05:43:58;;;;;;;13.02;3.42;;;;;;;8.07;100.00;99831.59;6312003;28;20190;-76
2023/12/26 05:47:02;;;;;;;13.02;4.63;;;;;;;8.08;100.00;99843.66;6305915;28;20054;-77
2023/12/26 05:50:04;;;;;;;10.10;4.03;;;;;;;7.94;100.00;99830.56;6307750;28;20048;-77
2023/12/26 05:53:05;;;;;;;11.48;3.85;;;;;;;8.04;100.00;99829.16;6316709;28;20047;-76
2023/12/26 05:56:05;;;;;;;11.60;4.13;;;;;;;8.03;100.00;99817.09;6304962;28;20048;-75
2023/12/26 05:59:09;;;;;;;8.27;3.60;;;;;;;8.06;100.00;99827.31;6316089;28;20073;-76
2023/12/26 06:02:11;;;;;;;17.10;7.25;;;;;;;8.16;100.00;99832.88;6301745;28;20040;-71
2023/12/26 06:05:12;;;;;;;10.65;4.35;;;;;;;8.19;100.00;99837.88;6316305;28;20537;-71
2023/12/26 06:08:17;;;;;;;18.02;4.60;;;;;;;8.00;100.00;99829.41;6306181;28;20044;-76
2023/12/26 06:11:17;;;;;;;20.92;4.78;;;;;;;8.09;100.00;99841.91;6310457;28;20557;-71
2023/12/26 06:14:19;;;;;;;11.60;4.93;;;;;;;8.25;100.00;99834.94;6305554;28;20044;-71
2023/12/26 06:17:22;;;;;;;14.38;5.43;;;;;;;8.18;100.00;99833.63;6304272;28;20048;-71
2023/12/26 06:20:24;;;;;;;11.57;4.10;;;;;;;8.17;100.00;99847.53;6300169;28;20044;-76
2023/12/26 06:23:26;;;;;;;14.88;5.30;;;;;;;8.22;100.00;99847.28;6313527;28;20045;-77
2023/12/26 06:26:27;;;;;;;17.17;4.68;;;;;;;8.12;100.00;99846.94;6293788;28;20058;-76
2023/12/26 06:29:28;;;;;;;9.10;3.88;;;;;;;7.99;100.00;99853.72;6301879;28;20044;-77
2023/12/26 06:32:29;;;;;;;14.07;4.75;;;;;;;7.91;100.00;99850.69;6317594;28;20051;-71
2023/12/26 06:35:30;;;;;;;20.20;5.72;;;;;;;7.84;100.00;99853.63;6320544;28;20048;-77
2023/12/26 06:38:31;;;;;;;13.85;5.50;;;;;;;7.91;100.00;99850.69;6319652;28;20048;-77
2023/12/26 06:41:32;;;;;;;10.48;5.20;;;;;;;7.52;100.00;99865.69;6319297;28;20044;-76
2023/12/26 06:44:36;;;;;;;7.97;4.70;;;;;;;7.54;100.00;99858.66;6320627;28;20055;-76
2023/12/26 06:47:37;;;;;;;18.17;4.47;;;;;;;7.55;100.00;99855.13;6320504;28;20093;-76
2023/12/26 06:50:38;;;;;;;16.85;6.60;;;;;;;7.61;100.00;99870.38;6319135;28;20454;-71
2023/12/26 06:53:41;;;;;;;11.15;5.13;;;;;;;7.52;100.00;99864.84;6320154;28;20036;-71
2023/12/26 06:56:45;;;;;;;14.75;5.70;;;;;;;7.70;100.00;99863.03;6313061;28;20044;-71
2023/12/26 06:59:48;;;;;;;11.35;6.15;;;;;;;7.64;100.00;99872.00;6317144;28;20055;-76
2023/12/26 07:02:53;;;;;;;12.70;5.60;;;;;;;7.86;100.00;99872.56;6318331;28;20416;-71
2023/12/26 07:05:54;;;;;;;13.50;5.47;;;;;;;7.74;100.00;99868.03;6319573;28;20052;-71
2023/12/26 07:08:58;;;;;;;15.23;5.22;;;;;;;7.73;100.00;99873.28;6319854;28;20058;-76
2023/12/26 07:11:59;;;;;;;13.23;6.10;;;;;;;7.64;100.00;99874.59;6318198;28;20048;-71
2023/12/26 07:15:00;;;;;;;11.02;5.75;;;;;;;7.62;100.00;99874.69;6318066;28;20073;-76
2023/12/26 07:18:01;;;;;;;10.40;5.95;;;;;;;7.44;100.00;99886.00;6316547;28;20385;-76
2023/12/26 07:21:02;;;;;;;12.23;6.03;;;;;;;7.42;100.00;99895.63;6317011;28;20051;-76
2023/12/26 07:24:03;;;;;;;10.80;5.93;;;;;;;7.48;100.00;99900.50;6319360;28;20048;-70
2023/12/26 07:27:04;;;;;;;22.92;7.72;;;;;;;7.56;100.00;99898.38;6319005;28;20569;-76
2023/12/26 07:30:06;;;;;;;9.18;5.38;;;;;;;7.28;100.00;99900.66;6319420;28;20051;-76
2023/12/26 07:33:07;;;;;;;12.88;5.38;;;;;;;7.42;100.00;99890.44;6314011;28;20048;-76
2023/12/26 07:36:11;;;;;;;16.35;6.53;;;;;;;7.61;100.00;99883.38;6301578;28;20048;-77
2023/12/26 07:39:12;;;;;;;11.95;6.10;;;;;;;7.70;100.00;99892.47;6314837;28;20590;-77
2023/12/26 07:42:13;;;;;;;10.55;5.13;;;;;;;7.55;100.00;99901.88;6296783;28;20409;-76
2023/12/26 07:45:14;;;;;;;12.85;5.50;;;;;;;7.77;100.00;99895.59;6305610;28;20511;-76
2023/12/26 07:48:15;;;;;;;12.50;7.03;;;;;;;7.71;100.00;99908.88;6302326;28;20078;-77
2023/12/26 07:51:16;;;;;;;12.50;5.88;;;;;;;7.53;100.00;99908.06;6318238;28;20075;-71
2023/12/26 07:54:17;;;;;;;21.10;7.28;;;;;;;7.74;100.00;99908.72;6313103;28;20056;-71
2023/12/26 07:57:17;;;;;;;14.10;7.32;;;;;;;7.76;100.00;99905.13;6293155;28;20079;-76
2023/12/26 08:00:19;;;;;;;14.93;7.25;;;;;;;7.82;100.00;99906.56;6293893;28;20098;-76
2023/12/26 08:03:22;;;;;;;20.83;8.02;;;;;;;7.83;100.00;99916.03;6294125;28;20075;-76
2023/12/26 08:06:27;;;;;;;15.85;6.20;;;;;;;7.89;100.00;99915.72;6299194;28;20447;-76
2023/12/26 08:09:27;;;;;;;16.60;6.78;;;;;;;7.94;100.00;99920.69;6311769;28;20071;-77
2023/12/26 08:12:28;;;;;;;15.00;6.88;;;;;;;8.07;100.00;99934.69;6310038;28;20054;-76
2023/12/26 08:15:30;;;;;;;15.85;6.68;;;;;;;8.17;100.00;99925.50;6313012;28;20052;-76
2023/12/26 08:18:32;;;;;;;22.58;8.95;;;;;;;8.19;100.00;99936.66;6310706;28;20070;-71
2023/12/26 08:21:33;;;;;;;29.73;7.65;;;;;;;8.19;100.00;99939.25;6309961;28;20045;-76
2023/12/26 08:24:34;;;;;;;21.67;7.13;;;;;;;8.38;100.00;99944.31;6315836;28;20135;-71
2023/12/26 08:27:37;;;;;;;16.27;7.45;;;;;;;8.52;100.00;99942.75;6306543;28;20044;-77
2023/12/26 08:30:38;;;;;;;10.93;5.40;;;;;;;8.46;100.00;99936.97;6313061;28;20048;-77
2023/12/26 08:33:38;;;;;;;15.93;6.13;;;;;;;8.78;100.00;99942.19;6315970;28;20048;-76
2023/12/26 08:36:39;;;;;;;13.90;5.80;;;;;;;8.73;100.00;99941.59;6321391;28;20050;-70
2023/12/26 08:39:40;;;;;;;15.25;6.63;;;;;;;9.03;100.00;99936.44;6321903;28;20044;-77
2023/12/26 08:42:42;;;;;;;15.88;7.00;;;;;;;9.15;100.00;99934.91;6321813;28;20044;-76
2023/12/26 08:45:43;;;;;;;19.58;6.90;;;;;;;9.33;100.00;99929.56;6306188;28;20131;-77
2023/12/26 08:48:44;;;;;;;13.65;5.72;;;;;;;9.27;100.00;99929.00;6297057;28;20394;-77
2023/12/26 08:51:45;;;;;;;12.90;7.13;;;;;;;9.12;100.00;99937.69;6296765;28;20040;-71
2023/12/26 08:54:48;;;;;;;19.02;7.07;;;;;;;9.23;100.00;99926.66;6307923;28;20048;-71
2023/12/26 08:57:51;;;;;;;19.23;6.10;;;;;;;9.28;100.00;99914.22;6312773;28;20466;-71
2023/12/26 09:00:52;;;;;;;9.85;5.78;;;;;;;9.46;100.00;99920.94;6318625;28;20100;-77
2023/12/26 09:03:55;;;;;;;13.15;5.97;;;;;;;9.16;100.00;99902.75;6314036;28;20123;-76
2023/12/26 09:06:56;;;;;;;14.05;5.47;;;;;;;9.37;100.00;99898.06;6310969;28;20049;-71
2023/12/26 09:10:00;;;;;;;12.15;5.97;;;;;;;9.57;100.00;99896.88;6302656;28;20801;-72
2023/12/26 09:13:01;;;;;;;14.32;6.07;;;;;;;9.26;100.00;99898.66;6304113;28;20062;-76
2023/12/26 09:16:02;;;;;;;21.60;6.63;;;;;;;9.30;100.00;99894.13;6316828;28;20048;-71
2023/12/26 09:19:03;;;;;;;23.30;6.30;;;;;;;9.16;100.00;99889.75;6321491;28;20101;-72
2023/12/26 09:22:04;;;;;;;11.32;5.78;;;;;;;9.18;100.00;99893.09;6322814;28;20085;-71
2023/12/26 09:25:07;;;;;;;17.42;7.57;;;;;;;9.25;100.00;99894.41;6311314;28;20068;-77
2023/12/26 09:28:11;;;;;;;19.77;6.63;;;;;;;9.38;100.00;99894.53;6319717;28;20048;-71
2023/12/26 09:31:12;;;;;;;18.73;6.15;;;;;;;9.47;100.00;99904.41;6306223;28;20051;-71
2023/12/26 09:34:13;;;;;;;6.85;4.15;;;;;;;9.46;100.00;99907.09;6317109;28;20103;-77
2023/12/26 09:37:13;;;;;;;9.15;5.72;;;;;;;9.74;100.00;99908.91;6311057;28;20057;-77
2023/12/26 09:40:14;;;;;;;13.95;6.43;;;;;;;9.67;100.00;99905.81;6309167;28;20493;-71
2023/12/26 09:43:18;;;;;;;14.23;5.28;;;;;;;9.58;100.00;99898.56;6316794;28;20052;-71
2023/12/26 09:46:19;;;;;;;18.60;5.85;;;;;;;9.91;100.00;99897.47;6295838;28;20553;-77
2023/12/26 09:49:21;;;;;;;8.85;4.55;;;;;;;10.07;100.00;99893.00;6318404;28;20052;-76
2023/12/26 09:52:22;;;;;;;10.40;5.57;;;;;;;10.57;100.00;99887.34;6303503;28;20131;-76
2023/12/26 09:55:23;;;;;;;16.13;5.55;;;;;;;10.67;100.00;99872.78;6304541;28;20050;-76
2023/12/26 09:58:24;;;;;;;13.07;5.65;;;;;;;10.69;100.00;99876.97;6301363;28;20067;-76
2023/12/26 10:01:25;;;;;;;23.05;8.18;;;;;;;10.88;100.00;99855.72;6309043;28;20055;-77
2023/12/26 10:04:26;;;;;;;7.90;4.10;;;;;;;10.66;100.00;99856.28;6301757;28;20245;-71
2023/12/26 10:07:30;;;;;;;13.95;5.07;;;;;;;10.56;100.00;99851.75;6293688;28;20436;-77
2023/12/26 10:10:32;;;;;;;14.68;4.32;;;;;;;10.65;100.00;99848.56;6314187;28;20066;-76
2023/12/26 10:13:51;;;;;;;12.77;4.25;;;;;;;10.82;100.00;99845.69;6309505;28;20044;-71
2023/12/26 10:16:51;;;;;;;15.45;4.22;;;;;;;10.84;100.00;99851.63;6300233;28;20048;-71
2023/12/26 10:19:59;;;;;;;8.68;3.97;;;;;;;11.07;100.00;99847.50;6303747;28;20536;-71
2023/12/26 10:23:03;;;;;;;12.40;5.03;;;;;;;11.00;100.00;99840.22;6315441;28;20066;-71
2023/12/26 10:26:05;;;;;;;13.32;5.57;;;;;;;11.23;100.00;99843.91;6301861;28;20044;-71
2023/12/26 10:29:11;;;;;;;8.68;3.92;;;;;;;11.08;100.00;99846.59;6307914;28;20104;-71
2023/12/26 10:32:12;;;;;;;13.32;4.32;;;;;;;10.97;100.00;99829.97;6320072;28;20040;-77
2023/12/26 10:35:14;;;;;;;7.68;3.88;;;;;;;10.73;100.00;99824.56;6313519;28;20044;-76
2023/12/26 10:38:15;;;;;;;9.13;4.05;;;;;;;10.80;100.00;99824.06;6313341;28;20068;-77
2023/12/26 10:41:24;;;;;;;9.43;4.83;;;;;;;10.85;100.00;99832.44;6295189;28;20195;-70
2023/12/26 10:47:49;;;;;;;11.57;5.82;;;;;;;10.94;100.00;99838.00;6300818;28;20049;-72
2023/12/26 10:50:52;;;;;;;19.35;6.35;;;;;;;11.04;100.00;99839.91;6300223;28;20040;-71
2023/12/26 10:54:02;;;;;;;15.60;5.63;;;;;;;10.83;100.00;99836.06;6310077;28;20044;-71
2023/12/26 10:57:03;;;;;;;13.50;5.47;;;;;;;10.89;100.00;99846.13;6294384;28;20058;-71
2023/12/26 13:54:30;;;;;;;8.27;3.65;;;;;;;11.12;100.00;99740.16;6299884;28;20097;-70
2023/12/26 13:58:09;;;;;;;8.40;3.15;;;;;;;11.08;100.00;99734.31;6306332;28;20080;-76
2023/12/26 14:01:47;;;;;;;8.25;2.80;;;;;;;11.18;100.00;99749.34;6295391;28;20352;-76
2023/12/26 14:05:26;;;;;;;10.68;4.75;;;;;;;11.07;100.00;99753.53;6320864;28;20051;-76
2023/12/26 14:09:04;;;;;;;6.95;3.30;;;;;;;11.11;100.00;99748.94;6320214;28;20101;-70
2023/12/26 14:12:42;;;;;;;10.27;3.10;;;;;;;10.97;100.00;99749.03;6320071;28;20044;-70
2023/12/26 14:16:23;;;;;;;8.85;3.42;;;;;;;10.88;100.00;99750.50;6295974;28;20044;-75
2023/12/26 14:20:02;;;;;;;12.80;3.65;;;;;;;10.76;100.00;99749.53;6294708;28;20493;-75
2023/12/26 14:23:41;;;;;;;18.30;3.10;;;;;;;10.63;100.00;99733.84;6297810;28;20051;-70
2023/12/26 14:27:19;;;;;;;10.55;3.75;;;;;;;10.76;100.00;99754.75;6296321;28;20181;-70
2023/12/26 14:30:59;;;;;;;8.50;3.35;;;;;;;10.58;100.00;99767.22;6294091;28;20131;-70
2023/12/26 14:34:37;;;;;;;6.30;3.03;;;;;;;10.63;100.00;99751.28;6300361;28;20040;-71
2023/12/26 14:38:16;;;;;;;7.28;3.22;;;;;;;10.54;100.00;99751.88;6319646;28;20077;-76
2023/12/26 14:41:54;;;;;;;9.05;2.92;;;;;;;10.46;100.00;99744.59;6320815;28;20541;-70
2023/12/26 14:45:32;;;;;;;6.10;2.70;;;;;;;10.43;100.00;99750.81;6320307;28;20048;-70
2023/12/26 14:49:11;;;;;;;11.07;4.10;;;;;;;10.40;100.00;99740.59;6319048;28;20067;-70
2023/12/26 14:52:49;;;;;;;12.05;3.13;;;;;;;10.38;100.00;99755.50;6320591;28;20089;-71
2023/12/26 14:56:28;;;;;;;7.78;2.53;;;;;;;10.46;100.00;99775.88;6318706;28;20074;-76
2023/12/26 15:00:06;;;;;;;8.23;2.83;;;;;;;10.46;100.00;99774.09;6305518;28;20163;-75
2023/12/26 15:03:07;;;;;;;11.00;3.42;;;;;;;10.46;100.00;99781.94;6293851;28;20541;-70
2023/12/26 15:06:18;;;;;;;9.20;3.90;;;;;;;10.45;100.00;99792.44;6303324;28;20071;-76
2023/12/26 15:09:19;;;;;;;14.05;5.60;;;;;;;10.46;100.00;99787.16;6294692;28;20179;-71
2023/12/26 15:12:20;;;;;;;17.15;5.38;;;;;;;10.42;100.00;99800.50;6307758;28;20056;-70
2023/12/26 15:15:21;;;;;;;10.70;4.53;;;;;;;10.40;100.00;99797.97;6318385;28;20411;-75
2023/12/26 15:18:25;;;;;;;9.68;2.97;;;;;;;10.36;100.00;99793.06;6302783;28;20048;-71
2023/12/26 15:21:25;;;;;;;6.00;3.20;;;;;;;10.33;100.00;99819.31;6310532;28;20052;-70
2023/12/26 15:24:26;;;;;;;5.25;3.50;;;;;;;10.32;100.00;99821.09;6307720;28;20059;-69
2023/12/26 15:27:27;;;;;;;6.63;3.55;;;;;;;10.36;100.00;99821.75;6312881;28;20488;-71
2023/12/26 15:30:28;;;;;;;7.55;3.70;;;;;;;10.32;100.00;99825.47;6299082;28;20138;-70
2023/12/26 15:33:31;;;;;;;14.25;4.18;;;;;;;10.32;100.00;99831.53;6304393;28;20511;-70
2023/12/26 15:36:32;;;;;;;9.48;3.22;;;;;;;10.20;100.00;99840.91;6305348;28;20147;-70
2023/12/26 15:39:33;;;;;;;16.92;3.97;;;;;;;10.17;100.00;99835.91;6305534;28;20066;-70
2023/12/26 15:42:34;;;;;;;10.65;3.35;;;;;;;10.17;100.00;99829.84;6292166;28;20052;-70
2023/12/26 15:45:37;;;;;;;8.38;3.58;;;;;;;10.01;100.00;99829.97;6298365;28;20055;-70
2023/12/26 15:48:39;;;;;;;9.93;4.03;;;;;;;10.14;100.00;99838.69;6296768;28;20044;-71
2023/12/26 15:51:43;;;;;;;15.27;5.28;;;;;;;10.14;100.00;99845.69;6298888;28;20334;-70
2023/12/26 15:54:44;;;;;;;4.40;2.75;;;;;;;10.21;100.00;99826.09;6304957;28;20048;-76
2023/12/26 15:57:45;;;;;;;11.20;3.03;;;;;;;10.19;100.00;99826.22;6306212;28;20115;-70
2023/12/26 16:00:46;;;;;;;6.68;3.00;;;;;;;10.03;100.00;99836.78;6302370;28;20515;-70
2023/12/26 16:03:51;;;;;;;9.40;3.40;;;;;;;10.17;100.00;99838.53;6319039;28;20044;-70
2023/12/26 16:06:52;;;;;;;9.60;3.10;;;;;;;9.96;100.00;99819.00;6309116;28;20056;-70
2023/12/26 16:09:55;;;;;;;11.95;4.32;;;;;;;9.90;100.00;99825.41;6313879;28;20080;-70
2023/12/26 16:12:56;;;;;;;11.35;4.80;;;;;;;9.95;100.00;99825.16;6319876;28;20063;-70
2023/12/26 16:15:57;;;;;;;18.67;4.60;;;;;;;9.92;100.00;99822.72;6319399;28;20076;-70
2023/12/26 16:18:58;;;;;;;15.90;4.13;;;;;;;9.91;100.00;99826.28;6311956;28;20083;-70
2023/12/26 16:21:59;;;;;;;16.48;4.85;;;;;;;9.96;100.00;99834.63;6317976;28;20059;-71
2023/12/26 16:25:00;;;;;;;13.73;5.43;;;;;;;9.90;100.00;99838.44;6316631;28;20048;-69
2023/12/26 16:28:04;;;;;;;12.65;3.20;;;;;;;9.82;100.00;99838.06;6313356;28;20052;-75
2023/12/26 16:31:05;;;;;;;12.05;3.20;;;;;;;9.82;100.00;99843.28;6317631;28;20075;-75
2023/12/26 16:34:08;;;;;;;15.50;3.17;;;;;;;9.85;100.00;99838.72;6315187;28;20047;-74
2023/12/26 16:37:11;;;;;;;11.32;4.63;;;;;;;9.85;100.00;99833.53;6315296;28;20127;-76
2023/12/26 16:40:12;;;;;;;12.63;4.25;;;;;;;9.79;100.00;99828.69;6317442;28;20484;-76
2023/12/26 16:43:13;;;;;;;10.30;4.47;;;;;;;9.88;100.00;99846.38;6317016;28;20052;-75
2023/12/26 16:46:14;;;;;;;12.77;5.60;;;;;;;9.96;100.00;99838.06;6317894;28;20272;-75
2023/12/26 16:49:15;;;;;;;10.70;4.68;;;;;;;9.89;100.00;99832.41;6313469;28;20051;-76
2023/12/26 16:52:17;;;;;;;14.82;6.57;;;;;;;9.93;100.00;99840.03;6314756;28;20532;-75
2023/12/26 16:55:18;;;;;;;11.45;4.85;;;;;;;9.76;100.00;99844.53;6320628;28;20054;-76
2023/12/26 16:58:19;;;;;;;11.32;3.92;;;;;;;9.79;100.00;99846.94;6321854;28;20059;-70
2023/12/26 17:01:20;;;;;;;16.20;5.13;;;;;;;9.79;100.00;99843.50;6319590;28;20040;-70
2023/12/26 17:04:21;;;;;;;7.20;3.83;;;;;;;9.78;100.00;99842.66;6321146;28;20044;-70
2023/12/26 17:07:22;;;;;;;11.13;4.65;;;;;;;9.88;100.00;99830.75;6313656;28;20153;-70
2023/12/26 17:10:23;;;;;;;15.68;5.13;;;;;;;9.80;100.00;99835.59;6320751;28;20048;-75
2023/12/26 17:13:26;;;;;;;8.55;4.35;;;;;;;9.83;100.00;99838.00;6320847;28;20059;-76
2023/12/26 17:16:27;;;;;;;7.13;3.70;;;;;;;9.81;100.00;99854.66;6322800;28;20051;-75